Time;durP1;ratioP1;P1;durP2;ratioP2;P2;SDS_P1;SDS_P2;PMS_P1;PMS_P2;Temp;Humidity;BMP_temperature;BMP_pressure;BME280_temperature;BME280_humidity;BME280_pressure;Samples;Min_cycle;Max_cycle;Signal;HPM_P1;HPM_P2
2022/06/10 00:00:35;;;;;;;3.43;3.43;;;17.30;1.00;;;;;;6314070;28;20335;-56
2022/06/10 00:03:41;;;;;;;3.43;3.33;;;17.30;1.00;;;;;;6332806;28;20264;-57
2022/06/10 00:06:44;;;;;;;3.33;3.30;;;17.20;1.00;;;;;;6334944;28;20250;-55
2022/06/10 00:09:46;;;;;;;3.00;3.00;;;17.20;1.00;;;;;;6334135;28;20398;-56
2022/06/10 00:12:50;;;;;;;3.40;3.30;;;17.10;1.00;;;;;;6329172;28;21117;-58
2022/06/10 00:15:54;;;;;;;3.30;3.20;;;17.10;1.00;;;;;;6333378;28;20315;-56
2022/06/10 00:18:58;;;;;;;3.43;3.33;;;17.00;1.00;;;;;;6333610;28;20240;-57
2022/06/10 00:22:01;;;;;;;3.77;3.43;;;17.00;1.00;;;;;;6330689;28;20240;-58
2022/06/10 00:25:06;;;;;;;3.90;3.80;;;16.90;1.00;;;;;;6308927;28;20648;-56
2022/06/10 00:28:10;;;;;;;3.50;3.40;;;16.90;1.00;;;;;;6309202;28;20240;-55
2022/06/10 00:31:13;;;;;;;3.47;3.20;;;16.90;1.00;;;;;;6304756;28;20228;-56
2022/06/10 00:34:25;;;;;;;5.10;3.33;;;16.80;1.00;;;;;;6327112;28;20224;-55
2022/06/10 00:37:27;;;;;;;3.20;3.00;;;16.80;1.00;;;;;;6332671;28;20246;-56
2022/06/10 00:40:33;;;;;;;3.50;3.30;;;16.80;1.00;;;;;;6328128;28;20335;-57
2022/06/10 00:43:37;;;;;;;3.43;3.23;;;16.70;1.00;;;;;;6334126;28;20304;-55
2022/06/10 00:46:40;;;;;;;3.77;3.47;;;16.70;1.00;;;;;;6333807;28;20293;-57
2022/06/10 00:49:48;;;;;;;3.50;3.40;;;16.60;1.00;;;;;;6320649;28;20264;-56
2022/06/10 00:52:55;;;;;;;3.97;3.87;;;16.60;1.00;;;;;;6307262;28;20737;-56
2022/06/10 00:56:01;;;;;;;3.93;3.83;;;16.50;1.00;;;;;;6307755;28;20244;-57
2022/06/10 00:59:11;;;;;;;3.80;3.60;;;16.50;1.00;;;;;;6333046;28;20321;-57
2022/06/10 01:02:18;;;;;;;4.00;3.80;;;16.50;1.00;;;;;;6325448;28;20303;-57
2022/06/10 01:05:25;;;;;;;4.30;4.20;;;16.50;1.00;;;;;;6327427;28;20243;-58
2022/06/10 01:08:28;;;;;;;4.00;3.80;;;16.40;1.00;;;;;;6331389;28;21323;-56
2022/06/10 01:11:54;;;;;;;4.40;4.10;;;16.40;1.00;;;;;;6326726;28;20232;-56
2022/06/10 01:15:13;;;;;;;4.13;4.03;;;16.40;1.00;;;;;;6307764;28;20233;-55
2022/06/10 01:18:37;;;;;;;4.17;3.83;;;16.30;1.00;;;;;;6325227;28;20335;-57
2022/06/10 01:22:20;;;;;;;3.83;3.60;;;16.30;1.00;;;;;;6324193;28;20243;-57
2022/06/10 01:25:56;;;;;;;4.10;3.90;;;16.20;1.00;;;;;;6307791;28;20721;-57
2022/06/10 01:29:23;;;;;;;4.87;4.00;;;16.20;1.00;;;;;;6306057;28;20338;-56
2022/06/10 01:32:33;;;;;;;4.67;4.27;;;16.10;1.00;;;;;;6309934;28;20240;-57
2022/06/10 01:35:42;;;;;;;4.43;4.03;;;16.10;1.00;;;;;;6332300;28;20258;-57
2022/06/10 01:38:50;;;;;;;4.23;4.00;;;16.10;1.00;;;;;;6329172;28;20395;-57
2022/06/10 01:41:57;;;;;;;4.80;4.40;;;16.00;1.00;;;;;;6324370;28;20602;-57
2022/06/10 01:45:09;;;;;;;5.70;4.80;;;16.00;1.00;;;;;;6333334;28;20716;-56
2022/06/10 01:48:19;;;;;;;4.83;4.53;;;15.90;1.00;;;;;;6332029;28;20236;-54
2022/06/10 01:51:28;;;;;;;6.20;5.60;;;15.90;1.00;;;;;;6323858;28;20727;-56
2022/06/10 01:54:40;;;;;;;7.87;6.23;;;15.90;1.00;;;;;;6331774;28;20232;-56
2022/06/10 01:57:48;;;;;;;14.47;6.90;;;15.90;1.00;;;;;;6331999;28;20314;-61
2022/06/10 02:00:58;;;;;;;9.77;6.77;;;15.80;1.00;;;;;;6309539;28;20378;-55
2022/06/10 02:04:08;;;;;;;12.57;6.50;;;15.80;1.00;;;;;;6316419;28;20240;-60
2022/06/10 02:07:18;;;;;;;11.13;7.30;;;15.80;1.00;;;;;;6321693;28;20685;-56
2022/06/10 02:10:27;;;;;;;11.53;7.07;;;15.70;1.00;;;;;;6329982;28;20239;-57
2022/06/10 02:13:34;;;;;;;14.37;7.97;;;15.70;1.00;;;;;;6332595;28;20367;-55
2022/06/10 02:16:40;;;;;;;8.07;6.07;;;15.70;1.00;;;;;;6322891;28;20382;-56
2022/06/10 02:19:49;;;;;;;7.53;6.20;;;15.60;1.00;;;;;;6309063;28;20318;-55
2022/06/10 02:22:57;;;;;;;6.63;5.53;;;15.60;1.00;;;;;;6306003;28;20669;-56
2022/06/10 02:26:03;;;;;;;7.67;6.07;;;15.60;1.00;;;;;;6306845;28;20373;-57
2022/06/10 02:29:11;;;;;;;5.93;5.50;;;15.50;1.00;;;;;;6306932;28;20345;-56
2022/06/10 02:32:14;;;;;;;7.70;5.70;;;15.50;1.00;;;;;;6306932;28;20499;-58
2022/06/10 02:35:20;;;;;;;6.03;5.53;;;15.50;1.00;;;;;;6331685;28;20238;-57
2022/06/10 02:38:29;;;;;;;6.73;5.80;;;15.50;1.00;;;;;;6317833;28;20386;-57
2022/06/10 02:41:37;;;;;;;7.00;6.37;;;15.40;1.00;;;;;;6326552;28;20615;-55
2022/06/10 02:44:49;;;;;;;7.57;6.87;;;15.40;1.00;;;;;;6331739;28;20268;-57
2022/06/10 02:47:56;;;;;;;7.07;6.37;;;15.40;1.00;;;;;;6277869;28;20314;-56
2022/06/10 02:51:01;;;;;;;7.33;6.53;;;15.40;1.00;;;;;;6306021;28;20224;-57
2022/06/10 02:54:09;;;;;;;6.80;5.90;;;15.30;1.00;;;;;;6305649;28;20382;-57
2022/06/10 02:57:14;;;;;;;6.37;5.97;;;15.30;1.00;;;;;;6306711;28;20282;-57
2022/06/10 03:04:00;;;;;;;6.03;5.60;;;15.20;1.00;;;;;;6317744;28;20240;-56
2022/06/10 03:07:14;;;;;;;5.83;5.40;;;15.20;1.00;;;;;;6323044;28;20266;-56
2022/06/10 03:10:25;;;;;;;5.80;5.30;;;15.20;1.00;;;;;;6325223;28;20216;-57
2022/06/10 03:13:38;;;;;;;6.10;5.73;;;15.20;1.00;;;;;;6325877;28;20313;-57
2022/06/10 03:16:56;;;;;;;5.17;4.97;;;15.10;1.00;;;;;;6322892;28;20613;-56
2022/06/10 03:20:06;;;;;;;5.37;4.93;;;15.10;1.00;;;;;;6322470;28;20233;-57
2022/06/10 03:23:22;;;;;;;5.30;4.90;;;15.10;1.00;;;;;;6304985;28;20229;-56
2022/06/10 03:26:34;;;;;;;5.10;4.77;;;15.00;1.00;;;;;;6305592;28;20239;-55
2022/06/10 03:29:44;;;;;;;5.97;5.53;;;15.00;1.00;;;;;;6306589;28;20710;-57
2022/06/10 03:32:52;;;;;;;5.10;4.80;;;15.10;1.00;;;;;;6304806;27;20740;-58
2022/06/10 03:36:02;;;;;;;5.40;5.00;;;15.00;1.00;;;;;;6333256;28;20228;-57
2022/06/10 03:39:09;;;;;;;5.40;5.20;;;15.00;1.00;;;;;;6319896;28;20235;-58
2022/06/10 03:42:16;;;;;;;5.43;5.03;;;15.00;1.00;;;;;;6332867;28;20246;-57
2022/06/10 03:45:22;;;;;;;5.07;4.87;;;15.00;1.00;;;;;;6335704;28;20410;-57
2022/06/10 03:48:26;;;;;;;5.53;5.20;;;15.00;1.00;;;;;;6331067;28;20254;-57
2022/06/10 03:51:31;;;;;;;5.67;5.17;;;15.00;1.00;;;;;;6310215;28;20284;-56
2022/06/10 03:54:36;;;;;;;5.97;5.40;;;15.00;1.00;;;;;;6334315;28;20333;-56
2022/06/10 03:57:39;;;;;;;5.30;4.90;;;15.00;1.00;;;;;;6335116;28;20245;-56
2022/06/10 04:00:42;;;;;;;5.63;5.13;;;15.10;1.00;;;;;;6328939;28;20228;-56
2022/06/10 04:03:45;;;;;;;5.37;5.00;;;15.00;1.00;;;;;;6322208;28;20232;-55
2022/06/10 04:06:48;;;;;;;6.67;4.97;;;15.00;1.00;;;;;;6330350;28;20247;-56
2022/06/10 04:10:02;;;;;;;5.53;5.10;;;15.00;1.00;;;;;;6333262;27;20232;-57
2022/06/10 04:13:07;;;;;;;5.70;5.20;;;15.00;1.00;;;;;;6319540;28;20723;-57
2022/06/10 04:16:09;;;;;;;5.67;5.27;;;15.10;1.00;;;;;;6334232;28;20869;-56
2022/06/10 04:19:13;;;;;;;6.43;5.60;;;15.10;1.00;;;;;;6325533;28;20244;-56
2022/06/10 04:22:17;;;;;;;6.50;5.80;;;15.10;1.00;;;;;;6331198;28;20243;-57
2022/06/10 04:25:22;;;;;;;6.73;6.23;;;15.20;1.00;;;;;;6333487;28;20243;-56
2022/06/10 04:28:25;;;;;;;6.47;5.70;;;15.20;1.00;;;;;;6327361;28;20747;-57
2022/06/10 04:31:28;;;;;;;7.00;6.30;;;15.30;1.00;;;;;;6332933;28;20242;-57
2022/06/10 04:34:31;;;;;;;6.63;6.10;;;15.20;1.00;;;;;;6329002;28;20293;-56
2022/06/10 04:37:34;;;;;;;8.40;5.80;;;15.30;1.00;;;;;;6327970;28;20250;-56
2022/06/10 04:40:39;;;;;;;7.33;6.07;;;15.40;1.00;;;;;;6326415;28;20255;-57
2022/06/10 04:43:42;;;;;;;6.50;5.90;;;15.40;1.00;;;;;;6332105;28;20322;-57
2022/06/10 04:46:46;;;;;;;6.43;6.10;;;15.50;1.00;;;;;;6332933;28;20238;-55
2022/06/10 04:49:48;;;;;;;8.73;5.80;;;15.50;1.00;;;;;;6332699;28;20594;-56
2022/06/10 04:52:52;;;;;;;6.80;5.30;;;15.60;1.00;;;;;;6331723;28;20605;-57
2022/06/10 04:55:56;;;;;;;6.47;5.57;;;15.70;1.00;;;;;;6335999;27;20360;-56
2022/06/10 04:59:00;;;;;;;6.93;5.20;;;15.90;1.00;;;;;;6326906;28;20236;-56
2022/06/10 05:02:03;;;;;;;5.57;5.07;;;16.10;1.00;;;;;;6332865;28;20236;-58
2022/06/10 05:05:07;;;;;;;5.73;5.13;;;16.30;1.00;;;;;;6332277;28;20304;-56
2022/06/10 05:08:13;;;;;;;4.53;4.17;;;16.70;1.00;;;;;;6320119;28;20323;-57
2022/06/10 05:11:17;;;;;;;5.90;5.13;;;16.90;1.00;;;;;;6332187;28;20228;-55
2022/06/10 05:14:20;;;;;;;5.80;5.27;;;17.20;1.00;;;;;;6323133;28;20326;-57
2022/06/10 05:17:23;;;;;;;5.23;4.50;;;17.50;1.00;;;;;;6330902;28;20292;-56
2022/06/10 05:20:29;;;;;;;5.00;3.77;;;17.80;1.00;;;;;;6329225;28;20307;-57
2022/06/10 05:23:32;;;;;;;4.37;3.97;;;18.00;1.00;;;;;;6331295;28;20404;-57
2022/06/10 05:26:36;;;;;;;3.87;3.60;;;18.10;1.00;;;;;;6332144;27;20659;-56
2022/06/10 05:29:39;;;;;;;4.83;3.83;;;18.50;1.00;;;;;;6330819;27;20365;-56
2022/06/10 05:32:42;;;;;;;3.90;3.60;;;18.70;1.00;;;;;;6331916;28;20314;-57
2022/06/10 05:35:46;;;;;;;3.57;3.27;;;19.00;1.00;;;;;;6327706;28;20657;-57
2022/06/10 05:38:49;;;;;;;3.80;3.50;;;19.20;1.00;;;;;;6325631;28;20239;-57
2022/06/10 05:42:06;;;;;;;7.53;3.47;;;19.40;1.00;;;;;;6328702;28;20239;-52
2022/06/10 05:45:11;;;;;;;6.60;3.50;;;19.50;1.00;;;;;;6326637;28;20279;-55
2022/06/10 05:48:13;;;;;;;5.20;3.60;;;19.60;1.00;;;;;;6330321;28;20557;-56
2022/06/10 05:51:18;;;;;;;5.77;3.63;;;19.80;1.00;;;;;;6329192;28;20228;-57
2022/06/10 05:54:22;;;;;;;2.83;2.73;;;19.90;1.00;;;;;;6315179;28;20260;-56
2022/06/10 05:57:26;;;;;;;3.20;2.90;;;20.10;1.00;;;;;;6330601;28;20409;-56
2022/06/10 06:00:31;;;;;;;3.13;2.90;;;20.30;1.00;;;;;;6329895;28;20250;-56
2022/06/10 06:03:33;;;;;;;5.20;2.67;;;20.40;1.00;;;;;;6328084;28;20851;-57
2022/06/10 06:06:36;;;;;;;3.13;2.77;;;20.40;1.00;;;;;;6329665;28;20232;-57
2022/06/10 06:09:39;;;;;;;3.53;2.50;;;20.60;1.00;;;;;;6329099;28;20680;-56
2022/06/10 06:12:44;;;;;;;2.60;2.40;;;20.90;1.00;;;;;;6326577;28;20471;-56
2022/06/10 06:15:47;;;;;;;3.50;2.40;;;21.20;1.00;;;;;;6322526;28;20319;-55
2022/06/10 06:18:56;;;;;;;2.53;2.43;;;21.60;1.00;;;;;;6328154;28;20247;-57
2022/06/10 06:21:59;;;;;;;3.27;2.30;;;21.70;1.00;;;;;;6329223;28;20560;-55
2022/06/10 06:25:02;;;;;;;3.30;2.73;;;21.90;1.00;;;;;;6329526;28;20392;-54
2022/06/10 06:28:07;;;;;;;3.60;2.87;;;21.90;1.00;;;;;;6320700;28;20985;-55
2022/06/10 06:31:10;;;;;;;3.97;2.17;;;22.20;1.00;;;;;;6329373;28;20720;-57
2022/06/10 06:34:13;;;;;;;3.30;3.00;;;22.20;1.00;;;;;;6308716;28;20309;-57
2022/06/10 06:37:17;;;;;;;4.00;2.30;;;21.80;1.00;;;;;;6319257;28;20243;-56
2022/06/10 06:40:20;;;;;;;5.20;2.60;;;21.90;1.00;;;;;;6326331;28;20315;-57
2022/06/10 06:43:25;;;;;;;4.10;2.23;;;22.20;1.00;;;;;;6328156;28;20312;-55
2022/06/10 06:46:28;;;;;;;5.87;2.67;;;22.50;1.00;;;;;;6322656;28;20856;-56
2022/06/10 06:49:31;;;;;;;3.30;3.00;;;22.60;1.00;;;;;;6330458;28;20235;-56
2022/06/10 06:52:34;;;;;;;2.33;2.23;;;22.90;1.00;;;;;;6328474;28;20421;-56
2022/06/10 06:55:38;;;;;;;4.57;2.73;;;23.00;1.00;;;;;;6327339;28;20568;-57
2022/06/10 06:58:42;;;;;;;3.07;2.50;;;23.00;1.00;;;;;;6330488;28;20377;-57
2022/06/10 07:01:45;;;;;;;2.40;2.20;;;22.70;1.00;;;;;;6330238;28;20232;-55
2022/06/10 07:04:48;;;;;;;3.67;2.40;;;22.70;1.00;;;;;;6320272;28;20231;-55
2022/06/10 07:07:51;;;;;;;3.33;2.10;;;22.50;1.00;;;;;;6332972;28;20319;-55
2022/06/10 07:10:54;;;;;;;2.50;2.30;;;22.30;1.00;;;;;;6326680;28;20378;-52
2022/06/10 07:13:58;;;;;;;3.47;2.43;;;22.30;1.00;;;;;;6336619;28;20441;-56
2022/06/10 07:17:01;;;;;;;7.40;2.40;;;22.40;1.00;;;;;;6333844;28;20373;-54
2022/06/10 07:20:06;;;;;;;3.87;2.23;;;22.40;1.00;;;;;;6332984;28;20308;-57
2022/06/10 07:23:09;;;;;;;3.13;2.40;;;22.50;1.00;;;;;;6332519;28;20240;-57
2022/06/10 07:26:13;;;;;;;3.73;2.30;;;22.40;1.00;;;;;;6333912;28;20239;-55
2022/06/10 07:29:17;;;;;;;7.37;2.50;;;22.20;1.00;;;;;;6310568;28;20244;-56
2022/06/10 07:32:20;;;;;;;2.67;2.43;;;22.00;1.00;;;;;;6317201;28;20234;-57
2022/06/10 07:35:23;;;;;;;2.43;2.27;;;22.00;1.00;;;;;;6321370;28;20232;-55
2022/06/10 07:38:27;;;;;;;7.23;2.67;;;22.10;1.00;;;;;;6317278;28;20236;-55
2022/06/10 07:44:54;;;;;;;7.10;2.70;;;22.30;1.00;;;;;;6312751;28;20391;-55
2022/06/10 07:47:57;;;;;;;4.73;2.20;;;22.20;1.00;;;;;;6319179;28;20753;-55
2022/06/10 07:51:00;;;;;;;3.80;2.30;;;22.10;1.00;;;;;;6308963;28;20226;-60
2022/06/10 07:54:03;;;;;;;6.90;2.60;;;21.90;1.00;;;;;;6311684;28;20728;-54
2022/06/10 07:57:11;;;;;;;2.70;2.40;;;21.70;1.00;;;;;;6316116;28;20621;-55
2022/06/10 08:00:16;;;;;;;3.40;2.53;;;21.70;1.00;;;;;;6314793;28;20270;-55
2022/06/10 08:03:19;;;;;;;7.17;3.10;;;21.50;1.00;;;;;;6314400;28;20367;-56
2022/06/10 08:06:25;;;;;;;7.17;2.70;;;21.60;1.00;;;;;;6318388;28;20251;-57
2022/06/10 08:09:27;;;;;;;4.43;2.30;;;21.50;1.00;;;;;;6308954;28;20233;-54
2022/06/10 08:12:30;;;;;;;3.77;2.40;;;21.30;1.00;;;;;;6312089;28;20330;-55
2022/06/10 08:15:36;;;;;;;4.53;2.60;;;21.20;1.00;;;;;;6315816;28;20315;-55
2022/06/10 08:18:39;;;;;;;8.17;2.93;;;21.20;1.00;;;;;;6324059;28;20605;-55
2022/06/10 08:25:08;;;;;;;5.10;3.00;;;21.30;1.00;;;;;;6323197;28;20310;-55
2022/06/10 08:28:12;;;;;;;6.13;2.93;;;21.30;1.00;;;;;;6310714;28;20295;-55
2022/06/10 08:31:17;;;;;;;5.27;2.60;;;21.20;1.00;;;;;;6324504;28;20296;-56
2022/06/10 08:34:20;;;;;;;3.70;2.70;;;21.30;1.00;;;;;;6314308;28;20231;-55
2022/06/10 08:37:23;;;;;;;6.03;2.90;;;21.40;1.00;;;;;;6312688;28;20337;-55
2022/06/10 08:40:33;;;;;;;3.90;2.40;;;21.60;1.00;;;;;;6310211;28;20311;-55
2022/06/10 08:43:58;;;;;;;4.20;2.73;;;21.40;1.00;;;;;;6313295;28;20258;-54
2022/06/10 08:47:22;;;;;;;4.27;2.17;;;21.40;1.00;;;;;;6316049;28;20237;-54
2022/06/10 08:50:56;;;;;;;3.73;2.67;;;21.50;1.00;;;;;;6305030;28;20240;-57
2022/06/10 08:54:19;;;;;;;8.17;3.00;;;21.50;1.00;;;;;;6289273;28;20655;-54
2022/06/10 08:57:32;;;;;;;5.27;2.87;;;21.40;1.00;;;;;;6317057;28;20236;-55
2022/06/10 09:00:37;;;;;;;3.77;2.50;;;21.60;1.00;;;;;;6317625;28;20240;-56
2022/06/10 09:03:45;;;;;;;6.47;2.70;;;21.80;1.00;;;;;;6324132;28;20347;-54
2022/06/10 09:06:52;;;;;;;6.00;2.63;;;21.70;1.00;;;;;;6315217;28;20232;-54
2022/06/10 09:09:56;;;;;;;5.47;2.60;;;21.60;1.00;;;;;;6307673;28;20456;-55
2022/06/10 09:13:21;;;;;;;4.27;2.67;;;21.60;1.00;;;;;;6320458;28;20395;-55
2022/06/10 09:16:28;;;;;;;7.73;2.60;;;21.60;1.00;;;;;;6325540;28;20238;-55
2022/06/10 09:19:43;;;;;;;3.60;2.20;;;21.60;1.00;;;;;;6318707;28;20232;-54
2022/06/10 09:22:54;;;;;;;4.13;2.63;;;21.70;1.00;;;;;;6309419;28;20344;-53
2022/06/10 09:26:07;;;;;;;6.40;2.67;;;21.80;1.00;;;;;;6313942;28;20344;-55
2022/06/10 09:29:12;;;;;;;5.20;2.50;;;21.80;1.00;;;;;;6307446;28;20811;-54
2022/06/10 09:32:21;;;;;;;5.67;2.30;;;22.20;1.00;;;;;;6319200;28;20763;-54
2022/06/10 09:35:32;;;;;;;8.10;2.80;;;22.50;1.00;;;;;;6316751;28;20266;-54
2022/06/10 09:38:42;;;;;;;7.10;2.30;;;22.60;1.00;;;;;;6306306;27;20335;-54
2022/06/10 09:41:50;;;;;;;3.13;2.70;;;22.60;1.00;;;;;;6318675;28;20317;-54
2022/06/10 09:45:03;;;;;;;4.57;2.70;;;22.70;1.00;;;;;;6306889;28;20237;-54
2022/06/10 09:48:24;;;;;;;5.57;2.67;;;22.70;1.00;;;;;;6311426;28;20236;-55
2022/06/10 09:51:36;;;;;;;4.23;2.23;;;22.50;1.00;;;;;;6308469;28;20325;-54
2022/06/10 09:54:50;;;;;;;4.77;2.60;;;22.40;1.00;;;;;;6310560;28;20323;-55
2022/06/10 09:58:11;;;;;;;3.37;2.47;;;22.60;1.00;;;;;;6315943;28;20305;-54
2022/06/10 10:01:29;;;;;;;3.20;2.20;;;22.60;1.00;;;;;;6310001;28;20335;-54
2022/06/10 10:04:55;;;;;;;6.73;3.00;;;22.50;1.00;;;;;;6305184;28;20236;-54
2022/06/10 10:08:06;;;;;;;6.83;2.50;;;22.60;1.00;;;;;;6315476;28;20298;-54
2022/06/10 10:11:19;;;;;;;7.10;2.93;;;22.80;1.00;;;;;;6313909;28;20367;-55
2022/06/10 10:14:30;;;;;;;4.97;2.67;;;22.80;1.00;;;;;;6307269;28;20556;-55
2022/06/10 10:17:53;;;;;;;5.73;2.50;;;22.80;1.00;;;;;;6325906;28;20758;-54
2022/06/10 10:21:10;;;;;;;2.43;2.30;;;22.80;1.00;;;;;;6306577;28;20304;-55
2022/06/10 10:24:19;;;;;;;2.80;2.17;;;22.80;1.00;;;;;;6310135;28;20747;-54
2022/06/10 10:27:26;;;;;;;3.47;1.93;;;22.90;1.00;;;;;;6313999;28;20311;-55
2022/06/10 10:30:34;;;;;;;2.83;2.53;;;23.20;1.00;;;;;;6309111;28;20247;-55
2022/06/10 10:33:38;;;;;;;2.40;2.30;;;23.20;1.00;;;;;;6316698;28;20604;-54
2022/06/10 10:36:49;;;;;;;4.97;2.47;;;23.20;1.00;;;;;;6313715;28;20353;-57
2022/06/10 10:39:59;;;;;;;3.10;2.50;;;23.00;1.00;;;;;;6314042;28;20408;-56
2022/06/10 10:43:06;;;;;;;4.40;2.30;;;23.00;1.00;;;;;;6317354;28;20247;-55
2022/06/10 10:46:29;;;;;;;3.03;2.67;;;23.10;1.00;;;;;;6314047;28;20327;-56
2022/06/10 10:49:35;;;;;;;4.70;2.43;;;23.00;1.00;;;;;;6313655;28;20220;-54
2022/06/10 10:52:42;;;;;;;4.73;2.50;;;23.10;1.00;;;;;;6314515;28;20304;-58
2022/06/10 10:55:51;;;;;;;3.57;2.07;;;23.00;1.00;;;;;;6316756;28;20254;-61
2022/06/10 10:58:56;;;;;;;5.10;2.80;;;23.10;1.00;;;;;;6313573;28;20309;-55
2022/06/10 11:02:00;;;;;;;3.03;2.33;;;23.30;1.00;;;;;;6316460;28;20774;-55
2022/06/10 11:05:20;;;;;;;3.70;3.13;;;23.20;1.00;;;;;;6308011;28;20642;-53
2022/06/10 11:08:26;;;;;;;6.37;3.20;;;23.40;1.00;;;;;;6301967;28;20235;-54
2022/06/10 11:11:32;;;;;;;6.23;3.37;;;23.40;1.00;;;;;;6305468;28;20463;-55
2022/06/10 11:14:47;;;;;;;8.30;2.73;;;23.50;1.00;;;;;;6303763;28;20228;-53
2022/06/10 11:17:51;;;;;;;5.83;2.93;;;23.70;1.00;;;;;;6318535;28;20254;-56
2022/06/10 11:21:00;;;;;;;2.80;2.70;;;23.70;1.00;;;;;;6315434;28;20260;-55
2022/06/10 11:24:05;;;;;;;6.83;2.43;;;23.70;1.00;;;;;;6315828;28;20326;-55
2022/06/10 11:27:32;;;;;;;4.33;2.53;;;23.60;1.00;;;;;;6304403;28;20251;-55
2022/06/10 11:30:41;;;;;;;3.33;3.07;;;23.50;1.00;;;;;;6313188;28;20608;-55
2022/06/10 11:33:47;;;;;;;6.60;2.73;;;23.60;1.00;;;;;;6316062;28;20229;-55
2022/06/10 11:36:52;;;;;;;5.07;2.73;;;23.60;1.00;;;;;;6323721;28;20290;-55
2022/06/10 11:40:02;;;;;;;5.43;3.20;;;23.60;1.00;;;;;;6310121;28;20460;-55
2022/06/10 11:43:18;;;;;;;3.53;3.30;;;23.80;1.00;;;;;;6321012;28;20246;-54
2022/06/10 11:46:28;;;;;;;4.90;2.63;;;23.80;1.00;;;;;;6312715;28;20237;-54
2022/06/10 11:49:37;;;;;;;5.83;2.90;;;23.80;1.00;;;;;;6323310;28;20246;-55
2022/06/10 11:52:47;;;;;;;7.77;2.97;;;23.80;1.00;;;;;;6303315;28;20547;-53
2022/06/10 11:59:42;;;;;;;3.93;2.60;;;23.80;1.00;;;;;;6315837;27;20699;-54
2022/06/10 12:02:48;;;;;;;3.00;2.83;;;24.00;1.00;;;;;;6322063;28;20714;-54
2022/06/10 12:05:58;;;;;;;3.03;2.63;;;24.10;1.00;;;;;;6320034;27;20236;-53
2022/06/10 12:09:04;;;;;;;2.77;2.37;;;24.20;1.00;;;;;;6322198;28;20318;-53
2022/06/10 12:12:15;;;;;;;2.70;2.50;;;24.30;1.00;;;;;;6309377;28;20602;-55
2022/06/10 12:15:25;;;;;;;6.37;2.10;;;24.50;1.00;;;;;;6314269;28;20231;-55
2022/06/10 12:18:33;;;;;;;3.10;2.50;;;24.40;1.00;;;;;;6297041;28;20472;-54
2022/06/10 12:21:36;;;;;;;5.00;2.70;;;24.30;1.00;;;;;;6319660;28;20239;-54
2022/06/10 12:24:39;;;;;;;2.70;2.37;;;24.50;1.00;;;;;;6315604;28;20646;-55
2022/06/10 12:27:49;;;;;;;4.10;2.90;;;24.50;1.00;;;;;;6312742;28;20319;-55
2022/06/10 12:31:00;;;;;;;4.50;2.77;;;24.50;1.00;;;;;;6319289;28;20236;-54
2022/06/10 12:34:12;;;;;;;4.23;2.57;;;24.50;1.00;;;;;;6320422;28;20515;-54
2022/06/10 12:37:25;;;;;;;4.10;2.23;;;24.40;1.00;;;;;;6314346;28;20607;-55
2022/06/10 12:40:32;;;;;;;6.17;2.43;;;24.40;1.00;;;;;;6318572;28;20614;-53
2022/06/10 12:43:40;;;;;;;2.90;2.50;;;24.50;1.00;;;;;;6320917;28;20241;-54
2022/06/10 12:46:48;;;;;;;4.03;2.40;;;24.50;1.00;;;;;;6313230;28;20725;-55
2022/06/10 12:49:58;;;;;;;10.67;2.50;;;24.70;1.00;;;;;;6321425;28;20772;-54
2022/06/10 12:53:28;;;;;;;7.37;3.33;;;24.80;1.00;;;;;;6312913;28;20262;-55
2022/06/10 12:56:32;;;;;;;3.07;2.87;;;24.80;1.00;;;;;;6314590;28;20359;-55
2022/06/10 12:59:35;;;;;;;2.87;2.57;;;24.80;1.00;;;;;;6309071;28;20760;-54
2022/06/10 13:02:46;;;;;;;3.43;2.77;;;24.80;1.00;;;;;;6316196;28;20362;-54
2022/06/10 13:05:49;;;;;;;5.13;3.00;;;24.90;1.00;;;;;;6307055;28;20247;-54
2022/06/10 13:08:54;;;;;;;3.70;2.50;;;24.90;1.00;;;;;;6314779;28;20297;-54
2022/06/10 13:11:59;;;;;;;3.57;2.37;;;24.90;1.00;;;;;;6303544;28;20327;-55
2022/06/10 13:15:15;;;;;;;3.03;2.50;;;24.70;1.00;;;;;;6320264;28;20284;-54
2022/06/10 13:18:32;;;;;;;4.07;2.33;;;24.70;1.00;;;;;;6325748;28;20523;-54
2022/06/10 13:21:40;;;;;;;2.83;2.60;;;24.80;1.00;;;;;;6306686;28;20452;-55
2022/06/10 13:24:43;;;;;;;5.70;2.40;;;24.80;1.00;;;;;;6315824;28;20819;-52
2022/06/10 13:27:48;;;;;;;2.97;2.20;;;24.90;1.00;;;;;;6307156;28;20309;-54
2022/06/10 13:31:02;;;;;;;2.13;2.00;;;24.90;1.00;;;;;;6317835;28;20232;-55
2022/06/10 13:34:07;;;;;;;2.07;2.00;;;25.00;1.00;;;;;;6328607;28;20796;-54
2022/06/10 13:37:16;;;;;;;5.93;2.20;;;25.20;1.00;;;;;;6317169;28;20529;-55
2022/06/10 13:40:21;;;;;;;2.50;2.50;;;25.30;1.00;;;;;;6314947;28;20241;-54
2022/06/10 13:43:31;;;;;;;2.27;2.17;;;25.20;1.00;;;;;;6311197;28;20293;-54
2022/06/10 13:46:35;;;;;;;2.70;2.20;;;25.20;1.00;;;;;;6306415;28;20505;-54
2022/06/10 13:49:45;;;;;;;2.20;2.20;;;25.20;1.00;;;;;;6311186;28;20397;-54
2022/06/10 13:52:50;;;;;;;2.87;2.50;;;25.20;1.00;;;;;;6309804;28;20224;-55
2022/06/10 13:55:55;;;;;;;2.53;2.33;;;25.30;1.00;;;;;;6315940;28;20311;-54
2022/06/10 13:58:58;;;;;;;2.50;2.23;;;25.40;1.00;;;;;;6309082;28;20423;-54
2022/06/10 14:02:14;;;;;;;3.07;2.50;;;25.40;1.00;;;;;;6311324;28;20327;-53
2022/06/10 14:05:24;;;;;;;2.67;2.43;;;25.20;1.00;;;;;;6307804;28;20323;-53
2022/06/10 14:08:30;;;;;;;2.53;2.43;;;25.30;1.00;;;;;;6307595;28;20297;-55
2022/06/10 14:11:34;;;;;;;3.23;2.50;;;25.40;1.00;;;;;;6312229;28;20233;-53
2022/06/10 14:14:40;;;;;;;2.87;2.57;;;25.50;1.00;;;;;;6310075;28;25596;-54
2022/06/10 14:17:49;;;;;;;3.43;2.57;;;25.60;1.00;;;;;;6317509;28;20326;-56
2022/06/10 14:20:55;;;;;;;3.03;2.83;;;25.60;1.00;;;;;;6313618;28;20239;-51
2022/06/10 14:24:18;;;;;;;2.77;2.60;;;25.80;1.00;;;;;;6314927;28;20344;-54
2022/06/10 14:27:26;;;;;;;2.67;2.47;;;25.80;1.00;;;;;;6309244;28;20252;-54
2022/06/10 14:30:41;;;;;;;2.13;2.03;;;25.70;1.00;;;;;;6294629;28;20368;-54
2022/06/10 14:33:49;;;;;;;2.80;2.50;;;25.70;1.00;;;;;;6311698;28;20325;-55
2022/06/10 14:36:59;;;;;;;2.37;2.17;;;25.70;1.00;;;;;;6318845;28;20236;-55
2022/06/10 14:40:16;;;;;;;2.30;2.10;;;25.70;1.00;;;;;;6314200;28;20246;-55
2022/06/10 14:43:22;;;;;;;3.43;2.27;;;25.80;1.00;;;;;;6306627;28;20594;-54
2022/06/10 14:46:26;;;;;;;3.13;2.20;;;25.80;1.00;;;;;;6301132;28;20241;-54
2022/06/10 14:49:29;;;;;;;2.37;2.23;;;25.80;1.00;;;;;;6314835;28;20228;-55
2022/06/10 14:52:40;;;;;;;2.70;2.27;;;25.90;1.00;;;;;;6319225;28;20237;-60
2022/06/10 14:55:46;;;;;;;2.13;2.03;;;25.90;1.00;;;;;;6313778;28;20320;-55
2022/06/10 14:58:52;;;;;;;2.40;2.20;;;25.90;1.00;;;;;;6320714;28;20282;-55
2022/06/10 15:01:56;;;;;;;2.80;2.20;;;25.80;1.00;;;;;;6316887;28;20239;-56
2022/06/10 15:08:21;;;;;;;2.73;2.53;;;25.50;1.00;;;;;;6326352;28;20313;-55
2022/06/10 15:11:28;;;;;;;4.57;2.20;;;25.60;1.00;;;;;;6322497;28;20716;-54
2022/06/10 15:14:31;;;;;;;4.43;2.57;;;25.70;1.00;;;;;;6322036;28;20233;-55
2022/06/10 15:17:34;;;;;;;2.60;2.40;;;25.80;1.00;;;;;;6333536;28;20232;-54
2022/06/10 15:20:36;;;;;;;6.37;2.63;;;25.80;1.00;;;;;;6328401;28;20318;-55
2022/06/10 15:23:42;;;;;;;2.43;2.30;;;25.80;1.00;;;;;;6337526;28;20250;-54
2022/06/10 15:26:48;;;;;;;3.37;2.70;;;25.80;1.00;;;;;;6328484;28;20246;-55
2022/06/10 15:29:51;;;;;;;2.50;2.30;;;25.80;1.00;;;;;;6325502;28;20268;-55
2022/06/10 15:32:54;;;;;;;3.37;2.17;;;25.70;1.00;;;;;;6342011;27;20266;-60
2022/06/10 15:42:42;;;;;;;3.07;2.63;;;25.80;1.00;;;;;;6327576;27;20232;-55
2022/06/10 15:45:45;;;;;;;4.30;2.63;;;25.90;1.00;;;;;;6326372;27;20322;-56
2022/06/10 15:48:50;;;;;;;3.07;2.20;;;25.90;1.00;;;;;;6341531;27;20699;-55
2022/06/10 15:51:57;;;;;;;3.07;2.83;;;26.00;1.00;;;;;;6327026;27;20295;-55
2022/06/10 15:58:36;;;;;;;2.83;2.60;;;26.10;1.00;;;;;;6320909;28;20247;-54
2022/06/10 16:01:39;;;;;;;4.03;2.70;;;26.00;1.00;;;;;;6317498;27;20236;-55
2022/06/10 16:04:42;;;;;;;3.47;2.40;;;25.70;1.00;;;;;;6332988;28;20756;-55
2022/06/10 16:07:45;;;;;;;3.10;2.90;;;25.70;1.00;;;;;;6332255;28;20759;-55
2022/06/10 16:10:54;;;;;;;2.87;2.57;;;25.90;1.00;;;;;;6327869;28;20863;-54
2022/06/10 16:13:56;;;;;;;2.70;2.50;;;25.90;1.00;;;;;;6334810;28;20427;-54
2022/06/10 16:16:59;;;;;;;4.87;2.90;;;26.00;1.00;;;;;;6332726;27;20224;-55
2022/06/10 16:20:03;;;;;;;2.70;2.53;;;26.00;1.00;;;;;;6329489;27;20261;-55
2022/06/10 16:23:10;;;;;;;4.40;2.80;;;26.00;1.00;;;;;;6332637;28;20287;-54
2022/06/10 16:26:18;;;;;;;2.30;2.20;;;25.90;1.00;;;;;;6331295;28;20236;-56
2022/06/10 16:29:25;;;;;;;4.30;2.23;;;25.90;1.00;;;;;;6330125;28;20311;-55
2022/06/10 16:32:29;;;;;;;3.27;2.90;;;25.90;1.00;;;;;;6334046;28;20617;-55
2022/06/10 16:35:32;;;;;;;4.43;2.57;;;25.60;1.00;;;;;;6324234;27;20586;-55
2022/06/10 16:38:35;;;;;;;4.57;2.63;;;25.60;1.00;;;;;;6325174;27;20235;-56
2022/06/10 16:41:42;;;;;;;5.77;2.87;;;25.70;1.00;;;;;;6333144;28;20228;-54
2022/06/10 16:44:46;;;;;;;3.47;3.07;;;25.60;1.00;;;;;;6332327;28;20235;-54
2022/06/10 16:47:49;;;;;;;2.83;2.70;;;25.40;1.00;;;;;;6333241;28;20723;-55
2022/06/10 16:50:54;;;;;;;2.60;2.40;;;25.20;1.00;;;;;;6332033;28;20358;-56
2022/06/10 16:54:15;;;;;;;3.23;2.40;;;24.90;1.00;;;;;;6328379;28;20276;-55
2022/06/10 16:57:24;;;;;;;3.53;2.90;;;24.80;1.00;;;;;;6333215;27;20232;-55